QTR1499 OTHH-HTKJ
Flight info
| Callsign | QTR1499 |
|---|---|
| Flight time | N/A |
| Altitude | 28000 |
| Route | DATRI L564 BAT/N0461F350 DCT KUTNA DCT MIGMA DCT GOBRO L425 ITUVO/N0458F360 B400 RIGAM B403 BOMIX UB403 MUSBI/N0454F380 UB403 MAV UP312 WAV UT939 UTATA |
| Aircraft | A320/M-SDE3FGHIRWY/LB1 |
Departure
| Time | 2026-05-06 15:10 |
|---|---|
| Airport | Hamad International Airport (OTHH) |
Arrival
| Time | N/A |
|---|---|
| Airport | Kilimanjaro International Airport (HTKJ) |
| Time | Latitude | Longitude | Altitude | Speed | Heading |
|---|---|---|---|---|---|
| 2026-05-06 14:40 | 25.26368 | 51.61769 | 23 ft | 0 kts | 213° |
| 2026-05-06 14:56 | 25.26381 | 51.61779 | 25 ft | 4 kts | 213° |
| 2026-05-06 14:56 | 25.26404 | 51.61796 | 23 ft | 4 kts | 213° |
| 2026-05-06 14:57 | 25.26427 | 51.61812 | 22 ft | 4 kts | 213° |
| 2026-05-06 14:57 | 25.26449 | 51.61829 | 22 ft | 4 kts | 220° |
| 2026-05-06 14:57 | 25.26467 | 51.61850 | 23 ft | 4 kts | 245° |
| 2026-05-06 14:57 | 25.26470 | 51.61873 | 22 ft | 2 kts | 311° |
| 2026-05-06 14:58 | 25.26469 | 51.61874 | 22 ft | 0 kts | 312° |
| 2026-05-06 15:00 | 25.26470 | 51.61873 | 22 ft | 1 kts | 312° |
| 2026-05-06 15:00 | 25.26497 | 51.61862 | 22 ft | 5 kts | 7° |
| 2026-05-06 15:00 | 25.26528 | 51.61901 | 22 ft | 8 kts | 56° |
| 2026-05-06 15:01 | 25.26580 | 51.61926 | 22 ft | 10 kts | 348° |
| 2026-05-06 15:01 | 25.26650 | 51.61896 | 22 ft | 12 kts | 336° |
| 2026-05-06 15:01 | 25.26732 | 51.61857 | 22 ft | 14 kts | 336° |
| 2026-05-06 15:01 | 25.26826 | 51.61818 | 23 ft | 16 kts | 340° |
| 2026-05-06 15:02 | 25.26933 | 51.61771 | 22 ft | 17 kts | 337° |
| 2026-05-06 15:02 | 25.27051 | 51.61719 | 22 ft | 19 kts | 339° |
| 2026-05-06 15:02 | 25.27180 | 51.61663 | 22 ft | 21 kts | 337° |
| 2026-05-06 15:02 | 25.27318 | 51.61601 | 22 ft | 22 kts | 338° |
| 2026-05-06 15:03 | 25.27431 | 51.61550 | 22 ft | 17 kts | 339° |
| 2026-05-06 15:03 | 25.27509 | 51.61486 | 23 ft | 13 kts | 280° |
| 2026-05-06 15:03 | 25.27482 | 51.61389 | 24 ft | 14 kts | 246° |
| 2026-05-06 15:03 | 25.27442 | 51.61283 | 22 ft | 15 kts | 248° |
| 2026-05-06 15:04 | 25.27400 | 51.61168 | 22 ft | 17 kts | 248° |
| 2026-05-06 15:04 | 25.27355 | 51.61042 | 22 ft | 18 kts | 248° |
| 2026-05-06 15:04 | 25.27305 | 51.60905 | 24 ft | 20 kts | 248° |
| 2026-05-06 15:04 | 25.27256 | 51.60769 | 22 ft | 18 kts | 245° |
| 2026-05-06 15:05 | 25.27208 | 51.60639 | 24 ft | 19 kts | 250° |
| 2026-05-06 15:05 | 25.27157 | 51.60495 | 23 ft | 21 kts | 249° |
| 2026-05-06 15:05 | 25.27102 | 51.60346 | 23 ft | 21 kts | 248° |
| 2026-05-06 15:05 | 25.27050 | 51.60203 | 23 ft | 21 kts | 248° |
| 2026-05-06 15:06 | 25.27001 | 51.60123 | 20 ft | 12 kts | 199° |
| 2026-05-06 15:06 | 25.26925 | 51.60144 | 20 ft | 12 kts | 159° |
| 2026-05-06 15:06 | 25.26842 | 51.60181 | 19 ft | 14 kts | 159° |
| 2026-05-06 15:06 | 25.26749 | 51.60222 | 20 ft | 15 kts | 157° |
| 2026-05-06 15:07 | 25.26646 | 51.60269 | 20 ft | 17 kts | 158° |
| 2026-05-06 15:07 | 25.26534 | 51.60316 | 20 ft | 18 kts | 157° |
| 2026-05-06 15:07 | 25.26456 | 51.60352 | 20 ft | 19 kts | 158° |
| 2026-05-06 15:07 | 25.26330 | 51.60406 | 21 ft | 20 kts | 158° |
| 2026-05-06 15:08 | 25.26218 | 51.60457 | 21 ft | 14 kts | 157° |
| 2026-05-06 15:08 | 25.26131 | 51.60482 | 20 ft | 11 kts | 191° |
| 2026-05-06 15:08 | 25.26084 | 51.60412 | 19 ft | 13 kts | 249° |
| 2026-05-06 15:08 | 25.26086 | 51.60316 | 19 ft | 11 kts | 306° |
| 2026-05-06 15:09 | 25.26110 | 51.60300 | 19 ft | 0 kts | 336° |
| 2026-05-06 15:09 | 25.26134 | 51.60288 | 19 ft | 23 kts | 336° |
| 2026-05-06 15:09 | 25.26503 | 51.60129 | 16 ft | 88 kts | 339° |
| 2026-05-06 15:09 | 25.27237 | 51.59804 | 16 ft | 137 kts | 339° |
| 2026-05-06 15:10 | 25.28241 | 51.59354 | 44 ft | 172 kts | 338° |
| 2026-05-06 15:10 | 25.29344 | 51.58852 | 628 ft | 170 kts | 339° |
| 2026-05-06 15:10 | 25.30443 | 51.58365 | 1249 ft | 170 kts | 340° |
| 2026-05-06 15:10 | 25.31544 | 51.57880 | 1826 ft | 171 kts | 340° |
| 2026-05-06 15:11 | 25.32701 | 51.57372 | 2010 ft | 189 kts | 340° |
| 2026-05-06 15:11 | 25.33977 | 51.56814 | 2126 ft | 211 kts | 340° |
| 2026-05-06 15:11 | 25.35420 | 51.56183 | 2304 ft | 235 kts | 340° |
| 2026-05-06 15:11 | 25.37015 | 51.55482 | 2517 ft | 258 kts | 340° |
| 2026-05-06 15:12 | 25.38720 | 51.54726 | 2985 ft | 268 kts | 340° |
| 2026-05-06 15:12 | 25.40489 | 51.53938 | 3626 ft | 273 kts | 339° |
| 2026-05-06 15:12 | 25.42237 | 51.53158 | 4298 ft | 275 kts | 339° |
| 2026-05-06 15:12 | 25.44023 | 51.52364 | 4979 ft | 278 kts | 339° |
| 2026-05-06 15:13 | 25.45821 | 51.51565 | 5674 ft | 280 kts | 338° |
| 2026-05-06 15:13 | 25.47454 | 51.50400 | 6326 ft | 285 kts | 312° |
| 2026-05-06 15:13 | 25.48349 | 51.48445 | 6974 ft | 289 kts | 280° |
| 2026-05-06 15:13 | 25.48395 | 51.46212 | 7648 ft | 292 kts | 269° |
| 2026-05-06 15:14 | 25.48300 | 51.43959 | 8355 ft | 293 kts | 268° |
| 2026-05-06 15:14 | 25.48187 | 51.41710 | 9049 ft | 294 kts | 268° |
| 2026-05-06 15:14 | 25.48070 | 51.39443 | 9760 ft | 295 kts | 268° |
| 2026-05-06 15:14 | 25.47954 | 51.37169 | 10394 ft | 297 kts | 268° |
| 2026-05-06 15:15 | 25.47843 | 51.34868 | 10988 ft | 301 kts | 268° |
| 2026-05-06 15:15 | 25.47736 | 51.32542 | 11570 ft | 305 kts | 269° |
| 2026-05-06 15:15 | 25.47603 | 51.30187 | 12157 ft | 309 kts | 263° |
| 2026-05-06 15:15 | 25.46888 | 51.27932 | 12708 ft | 316 kts | 238° |
| 2026-05-06 15:16 | 25.45348 | 51.26175 | 13189 ft | 326 kts | 213° |
| 2026-05-06 15:16 | 25.43177 | 51.25295 | 13310 ft | 344 kts | 184° |
| 2026-05-06 15:16 | 25.40722 | 51.25259 | 13447 ft | 361 kts | 178° |
| 2026-05-06 15:16 | 25.38156 | 51.25309 | 13636 ft | 375 kts | 178° |
| 2026-05-06 15:17 | 25.35524 | 51.25367 | 14044 ft | 380 kts | 178° |
| 2026-05-06 15:17 | 25.32898 | 51.25419 | 14536 ft | 383 kts | 179° |
| 2026-05-06 15:17 | 25.30193 | 51.25464 | 15078 ft | 385 kts | 179° |
| 2026-05-06 15:17 | 25.27553 | 51.25655 | 15586 ft | 386 kts | 171° |
| 2026-05-06 15:18 | 25.24940 | 51.26380 | 16095 ft | 388 kts | 160° |
| 2026-05-06 15:18 | 25.22409 | 51.27443 | 16609 ft | 390 kts | 159° |
| 2026-05-06 15:18 | 25.19863 | 51.28519 | 17122 ft | 392 kts | 159° |
| 2026-05-06 15:18 | 25.17308 | 51.29596 | 17650 ft | 395 kts | 159° |
| 2026-05-06 15:19 | 25.14734 | 51.30681 | 18156 ft | 397 kts | 159° |
| 2026-05-06 15:19 | 25.12144 | 51.31772 | 18601 ft | 399 kts | 160° |
| 2026-05-06 15:19 | 25.09542 | 51.32867 | 19031 ft | 402 kts | 160° |
| 2026-05-06 15:19 | 25.06916 | 51.33971 | 19464 ft | 405 kts | 160° |
| 2026-05-06 15:20 | 25.04279 | 51.35083 | 19894 ft | 407 kts | 160° |
| 2026-05-06 15:20 | 25.01627 | 51.36203 | 20329 ft | 410 kts | 160° |
| 2026-05-06 15:20 | 24.98955 | 51.37329 | 20763 ft | 412 kts | 160° |
| 2026-05-06 15:20 | 24.96264 | 51.38459 | 21173 ft | 415 kts | 160° |
| 2026-05-06 15:21 | 24.93574 | 51.39652 | 21570 ft | 418 kts | 155° |
| 2026-05-06 15:21 | 24.91053 | 51.41280 | 21956 ft | 423 kts | 146° |
| 2026-05-06 15:21 | 24.88652 | 51.43166 | 22339 ft | 425 kts | 146° |
| 2026-05-06 15:21 | 24.86231 | 51.45062 | 22721 ft | 428 kts | 146° |
| 2026-05-06 15:22 | 24.83798 | 51.46963 | 23099 ft | 430 kts | 146° |
| 2026-05-06 15:22 | 24.81343 | 51.48877 | 23447 ft | 433 kts | 146° |
| 2026-05-06 15:22 | 24.78876 | 51.50799 | 23750 ft | 436 kts | 146° |
| 2026-05-06 15:22 | 24.76393 | 51.52720 | 24063 ft | 437 kts | 149° |
| 2026-05-06 15:23 | 24.73717 | 51.54295 | 24367 ft | 436 kts | 160° |
| 2026-05-06 15:23 | 24.70827 | 51.55279 | 24670 ft | 434 kts | 171° |
| 2026-05-06 15:23 | 24.67834 | 51.55639 | 24978 ft | 432 kts | 182° |
| 2026-05-06 15:23 | 24.64845 | 51.55377 | 25286 ft | 431 kts | 193° |
| 2026-05-06 15:24 | 24.61917 | 51.54688 | 25592 ft | 431 kts | 195° |
| 2026-05-06 15:24 | 24.58978 | 51.53987 | 25903 ft | 433 kts | 194° |
| 2026-05-06 15:24 | 24.56025 | 51.53294 | 26214 ft | 434 kts | 194° |
| 2026-05-06 15:24 | 24.53067 | 51.52603 | 26520 ft | 436 kts | 194° |
| 2026-05-06 15:25 | 24.50097 | 51.51908 | 26821 ft | 437 kts | 194° |
| 2026-05-06 15:25 | 24.47117 | 51.51210 | 27128 ft | 438 kts | 195° |
| 2026-05-06 15:25 | 24.44128 | 51.50507 | 27437 ft | 440 kts | 195° |
| 2026-05-06 15:25 | 24.41128 | 51.49800 | 27739 ft | 441 kts | 195° |
| 2026-05-06 15:26 | 24.38121 | 51.49090 | 28040 ft | 443 kts | 195° |
| 2026-05-06 15:26 | 24.35106 | 51.48376 | 28370 ft | 443 kts | 195° |
| 2026-05-06 15:26 | 24.32097 | 51.47663 | 28812 ft | 442 kts | 195° |
| 2026-05-06 15:26 | 24.29095 | 51.46956 | 29262 ft | 440 kts | 195° |
| 2026-05-06 15:27 | 24.26106 | 51.46253 | 29714 ft | 438 kts | 195° |
| 2026-05-06 15:27 | 24.23125 | 51.45559 | 30101 ft | 438 kts | 194° |
| 2026-05-06 15:27 | 24.20090 | 51.45205 | 30453 ft | 442 kts | 185° |
| 2026-05-06 15:27 | 24.17012 | 51.45225 | 30779 ft | 442 kts | 184° |
| 2026-05-06 15:28 | 24.13934 | 51.45255 | 31118 ft | 442 kts | 184° |
| 2026-05-06 15:28 | 24.10860 | 51.45281 | 31463 ft | 441 kts | 184° |
| 2026-05-06 15:28 | 24.07790 | 51.45301 | 31812 ft | 441 kts | 184° |
| 2026-05-06 15:28 | 24.04725 | 51.45318 | 32168 ft | 440 kts | 184° |
| 2026-05-06 15:29 | 24.01662 | 51.45336 | 32520 ft | 440 kts | 184° |
| 2026-05-06 15:29 | 23.98601 | 51.45355 | 32880 ft | 439 kts | 184° |
| 2026-05-06 15:29 | 23.95547 | 51.45370 | 33243 ft | 439 kts | 185° |
| 2026-05-06 15:29 | 23.92536 | 51.45384 | 33595 ft | 438 kts | 185° |
| 2026-05-06 15:30 | 23.89490 | 51.45397 | 33910 ft | 438 kts | 185° |
| 2026-05-06 15:30 | 23.86447 | 51.45414 | 34201 ft | 437 kts | 185° |
| 2026-05-06 15:30 | 23.83412 | 51.45434 | 34502 ft | 436 kts | 185° |
| 2026-05-06 15:30 | 23.80378 | 51.45457 | 34730 ft | 436 kts | 184° |
| 2026-05-06 15:31 | 23.77336 | 51.45479 | 34782 ft | 439 kts | 184° |
| 2026-05-06 15:31 | 23.71151 | 51.45513 | 34795 ft | 448 kts | 184° |
| 2026-05-06 15:32 | 23.61780 | 51.45588 | 34789 ft | 449 kts | 184° |
| 2026-05-06 15:32 | 23.55531 | 51.45629 | 34780 ft | 449 kts | 184° |
| 2026-05-06 15:33 | 23.49280 | 51.45666 | 34782 ft | 449 kts | 184° |
| 2026-05-06 15:33 | 23.43031 | 51.45707 | 34780 ft | 449 kts | 184° |
| 2026-05-06 15:34 | 23.36776 | 51.45750 | 34779 ft | 449 kts | 184° |
| 2026-05-06 15:34 | 23.30519 | 51.45790 | 34783 ft | 449 kts | 184° |
| 2026-05-06 15:35 | 23.24270 | 51.45828 | 34784 ft | 449 kts | 184° |
| 2026-05-06 15:35 | 23.18021 | 51.45880 | 34781 ft | 449 kts | 184° |
| 2026-05-06 15:36 | 23.11771 | 51.45973 | 34784 ft | 449 kts | 183° |
| 2026-05-06 15:36 | 23.05522 | 51.46070 | 34784 ft | 449 kts | 183° |
| 2026-05-06 15:37 | 22.99270 | 51.46163 | 34786 ft | 449 kts | 183° |
| 2026-05-06 15:37 | 22.93017 | 51.46249 | 34784 ft | 449 kts | 183° |
| 2026-05-06 15:38 | 22.86772 | 51.46597 | 34782 ft | 454 kts | 173° |
| 2026-05-06 15:38 | 22.80806 | 51.48978 | 34780 ft | 465 kts | 153° |
| 2026-05-06 15:39 | 22.75429 | 51.52934 | 34775 ft | 468 kts | 149° |
| 2026-05-06 15:39 | 22.70053 | 51.56911 | 34767 ft | 468 kts | 150° |
| 2026-05-06 15:40 | 22.64706 | 51.60845 | 34771 ft | 468 kts | 150° |
| 2026-05-06 15:40 | 22.59330 | 51.64804 | 34768 ft | 468 kts | 150° |
| 2026-05-06 15:41 | 22.53944 | 51.68760 | 34768 ft | 467 kts | 150° |
| 2026-05-06 15:41 | 22.48571 | 51.72717 | 34769 ft | 467 kts | 149° |
| 2026-05-06 15:42 | 22.43192 | 51.76685 | 34763 ft | 467 kts | 149° |
| 2026-05-06 15:42 | 22.37816 | 51.80639 | 34766 ft | 467 kts | 149° |
| 2026-05-06 15:43 | 22.32435 | 51.84582 | 34765 ft | 468 kts | 149° |
| 2026-05-06 15:43 | 22.27016 | 51.88554 | 34764 ft | 468 kts | 149° |
| 2026-05-06 15:44 | 22.21666 | 51.92465 | 34765 ft | 468 kts | 149° |
| 2026-05-06 15:44 | 22.16277 | 51.96406 | 34765 ft | 468 kts | 149° |
| 2026-05-06 15:45 | 22.10886 | 52.00349 | 34764 ft | 468 kts | 149° |
| 2026-05-06 15:45 | 22.05499 | 52.04286 | 34759 ft | 468 kts | 149° |
| 2026-05-06 15:46 | 22.00110 | 52.08215 | 34763 ft | 468 kts | 149° |
| 2026-05-06 15:46 | 21.94723 | 52.12145 | 34761 ft | 467 kts | 149° |
| 2026-05-06 15:47 | 21.89336 | 52.16073 | 34762 ft | 467 kts | 149° |
| 2026-05-06 15:47 | 21.83953 | 52.19989 | 34757 ft | 467 kts | 149° |
| 2026-05-06 15:48 | 21.78562 | 52.23903 | 34751 ft | 467 kts | 149° |
| 2026-05-06 15:48 | 21.73176 | 52.27805 | 34751 ft | 467 kts | 149° |
| 2026-05-06 15:49 | 21.68703 | 52.31052 | 34751 ft | 467 kts | 149° |
| 2026-05-06 15:49 | 21.62406 | 52.35624 | 34750 ft | 468 kts | 149° |
| 2026-05-06 15:50 | 21.57920 | 52.38871 | 34747 ft | 468 kts | 149° |
| 2026-05-06 15:50 | 21.52521 | 52.42779 | 34752 ft | 468 kts | 149° |
| 2026-05-06 15:51 | 21.47127 | 52.46687 | 34746 ft | 468 kts | 148° |
| 2026-05-06 15:51 | 21.41729 | 52.50587 | 34744 ft | 468 kts | 148° |
| 2026-05-06 15:52 | 21.36332 | 52.54482 | 34745 ft | 468 kts | 149° |
| 2026-05-06 15:52 | 21.30922 | 52.58379 | 34743 ft | 468 kts | 148° |
| 2026-05-06 15:53 | 21.25512 | 52.62279 | 34743 ft | 468 kts | 148° |
| 2026-05-06 15:53 | 21.20106 | 52.66180 | 34745 ft | 468 kts | 148° |
| 2026-05-06 15:54 | 21.14703 | 52.70064 | 34743 ft | 468 kts | 148° |
| 2026-05-06 15:54 | 21.09296 | 52.73947 | 34750 ft | 468 kts | 148° |
| 2026-05-06 15:55 | 21.03877 | 52.77834 | 34745 ft | 469 kts | 148° |
| 2026-05-06 15:55 | 20.98461 | 52.81721 | 34749 ft | 469 kts | 148° |
| 2026-05-06 15:56 | 20.93048 | 52.85597 | 34748 ft | 469 kts | 148° |
| 2026-05-06 15:56 | 20.87623 | 52.89480 | 34749 ft | 469 kts | 148° |
| 2026-05-06 15:57 | 20.82204 | 52.93355 | 34748 ft | 469 kts | 148° |
| 2026-05-06 15:57 | 20.76814 | 52.97205 | 34749 ft | 469 kts | 148° |
| 2026-05-06 15:58 | 20.71395 | 53.01080 | 34751 ft | 468 kts | 148° |
| 2026-05-06 15:58 | 20.65978 | 53.04944 | 34749 ft | 468 kts | 148° |
| 2026-05-06 15:59 | 20.60563 | 53.08805 | 34751 ft | 468 kts | 148° |
| 2026-05-06 15:59 | 20.55149 | 53.12661 | 34750 ft | 468 kts | 148° |
| 2026-05-06 16:00 | 20.49736 | 53.16520 | 34747 ft | 468 kts | 148° |
| 2026-05-06 16:00 | 20.44319 | 53.20377 | 34747 ft | 468 kts | 148° |
| 2026-05-06 16:01 | 20.38896 | 53.24222 | 34743 ft | 468 kts | 148° |
| 2026-05-06 16:01 | 20.33478 | 53.28061 | 34747 ft | 468 kts | 148° |
| 2026-05-06 16:02 | 20.28057 | 53.31910 | 34748 ft | 468 kts | 148° |
| 2026-05-06 16:02 | 20.22639 | 53.35755 | 34751 ft | 468 kts | 148° |
| 2026-05-06 16:03 | 20.17212 | 53.39602 | 34752 ft | 468 kts | 148° |
| 2026-05-06 16:03 | 20.11782 | 53.43438 | 34754 ft | 468 kts | 148° |
| 2026-05-06 16:04 | 20.06348 | 53.47274 | 34757 ft | 468 kts | 148° |
| 2026-05-06 16:04 | 20.00914 | 53.51109 | 34759 ft | 468 kts | 148° |
| 2026-05-06 16:05 | 19.95482 | 53.54942 | 34756 ft | 468 kts | 148° |
| 2026-05-06 16:05 | 19.90052 | 53.58773 | 34756 ft | 468 kts | 148° |
| 2026-05-06 16:06 | 19.84628 | 53.62599 | 34755 ft | 468 kts | 148° |
| 2026-05-06 16:06 | 19.79193 | 53.66412 | 34755 ft | 468 kts | 148° |
| 2026-05-06 16:07 | 19.73771 | 53.70223 | 34756 ft | 467 kts | 148° |
| 2026-05-06 16:07 | 19.68347 | 53.74038 | 34757 ft | 467 kts | 148° |
| 2026-05-06 16:08 | 19.63233 | 53.78188 | 34748 ft | 469 kts | 134° |
| 2026-05-06 16:08 | 19.59563 | 53.83887 | 34747 ft | 471 kts | 114° |
| 2026-05-06 16:09 | 19.57529 | 53.90537 | 34743 ft | 472 kts | 107° |
| 2026-05-06 16:09 | 19.55664 | 53.97207 | 34746 ft | 472 kts | 107° |
| 2026-05-06 16:10 | 19.53801 | 54.03833 | 34743 ft | 472 kts | 107° |
| 2026-05-06 16:10 | 19.51917 | 54.10497 | 34750 ft | 472 kts | 107° |
| 2026-05-06 16:11 | 19.50034 | 54.17175 | 34754 ft | 473 kts | 107° |
| 2026-05-06 16:11 | 19.48146 | 54.23851 | 34753 ft | 473 kts | 107° |
| 2026-05-06 16:12 | 19.46260 | 54.30527 | 34759 ft | 473 kts | 107° |
| 2026-05-06 16:12 | 19.44369 | 54.37200 | 34759 ft | 473 kts | 107° |
| 2026-05-06 16:13 | 19.42471 | 54.43868 | 34760 ft | 473 kts | 107° |
| 2026-05-06 16:13 | 19.40579 | 54.50533 | 34765 ft | 472 kts | 107° |
| 2026-05-06 16:14 | 19.38689 | 54.57200 | 34775 ft | 473 kts | 107° |
| 2026-05-06 16:14 | 19.36780 | 54.63868 | 34769 ft | 473 kts | 107° |
| 2026-05-06 16:15 | 19.34869 | 54.70543 | 34770 ft | 474 kts | 107° |
| 2026-05-06 16:15 | 19.32965 | 54.77226 | 34773 ft | 474 kts | 107° |
| 2026-05-06 16:16 | 19.31056 | 54.83917 | 34787 ft | 475 kts | 107° |
| 2026-05-06 16:16 | 19.29134 | 54.90612 | 34788 ft | 475 kts | 107° |
| 2026-05-06 16:17 | 19.27207 | 54.97305 | 34800 ft | 475 kts | 107° |
| 2026-05-06 16:17 | 19.25279 | 55.03993 | 34804 ft | 475 kts | 107° |
| 2026-05-06 16:18 | 19.23361 | 55.10645 | 34809 ft | 475 kts | 107° |
| 2026-05-06 16:18 | 19.21432 | 55.17331 | 34816 ft | 475 kts | 107° |
| 2026-05-06 16:19 | 19.19504 | 55.24008 | 34821 ft | 474 kts | 107° |
| 2026-05-06 16:19 | 19.17568 | 55.30684 | 34829 ft | 474 kts | 107° |
| 2026-05-06 16:20 | 19.15631 | 55.37360 | 34827 ft | 474 kts | 107° |
| 2026-05-06 16:20 | 19.13699 | 55.44026 | 34841 ft | 474 kts | 107° |
| 2026-05-06 16:21 | 19.11764 | 55.50692 | 34845 ft | 474 kts | 107° |
| 2026-05-06 16:21 | 19.09802 | 55.57341 | 34842 ft | 473 kts | 111° |
| 2026-05-06 16:22 | 19.08277 | 55.60403 | 34843 ft | 470 kts | 128° |
| 2026-05-06 16:22 | 19.06054 | 55.62909 | 34843 ft | 467 kts | 143° |
| 2026-05-06 16:22 | 19.03328 | 55.64743 | 34834 ft | 464 kts | 157° |
| 2026-05-06 16:22 | 19.00291 | 55.65822 | 34834 ft | 460 kts | 171° |
| 2026-05-06 16:23 | 18.97115 | 55.66034 | 34834 ft | 456 kts | 187° |
| 2026-05-06 16:23 | 18.94023 | 55.65349 | 34826 ft | 453 kts | 202° |
| 2026-05-06 16:23 | 18.88489 | 55.62237 | 34818 ft | 452 kts | 211° |
| 2026-05-06 16:24 | 18.83007 | 55.58932 | 34816 ft | 454 kts | 210° |
| 2026-05-06 16:24 | 18.77501 | 55.55634 | 34823 ft | 456 kts | 211° |
| 2026-05-06 16:25 | 18.71983 | 55.52327 | 34824 ft | 456 kts | 210° |
| 2026-05-06 16:25 | 18.66464 | 55.49013 | 34832 ft | 457 kts | 210° |
| 2026-05-06 16:26 | 18.60945 | 55.45690 | 34837 ft | 457 kts | 210° |
| 2026-05-06 16:26 | 18.55417 | 55.42379 | 34838 ft | 457 kts | 210° |
| 2026-05-06 16:27 | 18.49883 | 55.39071 | 34835 ft | 457 kts | 210° |
| 2026-05-06 16:27 | 18.44392 | 55.35783 | 34838 ft | 457 kts | 210° |
| 2026-05-06 16:28 | 18.38858 | 55.32469 | 34843 ft | 458 kts | 210° |
| 2026-05-06 16:28 | 18.33318 | 55.29154 | 34847 ft | 457 kts | 210° |
| 2026-05-06 16:29 | 18.27784 | 55.25851 | 34847 ft | 457 kts | 210° |
| 2026-05-06 16:29 | 18.22242 | 55.22557 | 34844 ft | 457 kts | 210° |
| 2026-05-06 16:30 | 18.18536 | 55.20354 | 34844 ft | 457 kts | 210° |
| 2026-05-06 16:30 | 18.10998 | 55.16317 | 34847 ft | 457 kts | 204° |
| 2026-05-06 16:31 | 18.05147 | 55.13684 | 34848 ft | 457 kts | 204° |
| 2026-05-06 16:31 | 17.99291 | 55.11061 | 34843 ft | 457 kts | 204° |
| 2026-05-06 16:32 | 17.93431 | 55.08442 | 34840 ft | 458 kts | 204° |
| 2026-05-06 16:32 | 17.88558 | 55.06263 | 34843 ft | 458 kts | 204° |
| 2026-05-06 16:33 | 17.82705 | 55.03637 | 34849 ft | 458 kts | 204° |
| 2026-05-06 16:34 | 17.73926 | 54.99695 | 34844 ft | 458 kts | 204° |
| 2026-05-06 16:34 | 17.68068 | 54.97071 | 34853 ft | 458 kts | 204° |
| 2026-05-06 16:35 | 17.62207 | 54.94461 | 34854 ft | 458 kts | 203° |
| 2026-05-06 16:35 | 17.56344 | 54.91845 | 34854 ft | 458 kts | 204° |
| 2026-05-06 16:36 | 17.50484 | 54.89222 | 34863 ft | 458 kts | 204° |
| 2026-05-06 16:36 | 17.44617 | 54.86608 | 34867 ft | 458 kts | 204° |
| 2026-05-06 16:37 | 17.38747 | 54.83985 | 34867 ft | 458 kts | 204° |
| 2026-05-06 16:37 | 17.32914 | 54.81382 | 34873 ft | 459 kts | 204° |
| 2026-05-06 16:38 | 17.27061 | 54.78707 | 34874 ft | 459 kts | 208° |
| 2026-05-06 16:38 | 17.21646 | 54.75185 | 34875 ft | 458 kts | 213° |
| 2026-05-06 16:39 | 17.16274 | 54.71580 | 34870 ft | 459 kts | 213° |
| 2026-05-06 16:39 | 17.10901 | 54.67976 | 34865 ft | 459 kts | 213° |
| 2026-05-06 16:40 | 17.05515 | 54.64375 | 34871 ft | 459 kts | 213° |
| 2026-05-06 16:40 | 17.00129 | 54.60777 | 34865 ft | 460 kts | 213° |
| 2026-05-06 16:41 | 16.94744 | 54.57176 | 34862 ft | 460 kts | 213° |
| 2026-05-06 16:41 | 16.89347 | 54.53576 | 34845 ft | 460 kts | 213° |
| 2026-05-06 16:42 | 16.83947 | 54.49980 | 34838 ft | 460 kts | 213° |
| 2026-05-06 16:42 | 16.78549 | 54.46382 | 34838 ft | 460 kts | 213° |
| 2026-05-06 16:43 | 16.73144 | 54.42782 | 34835 ft | 461 kts | 213° |
| 2026-05-06 16:43 | 16.67745 | 54.39184 | 34830 ft | 461 kts | 213° |
| 2026-05-06 16:44 | 16.62338 | 54.35588 | 34830 ft | 461 kts | 213° |
| 2026-05-06 16:44 | 16.56925 | 54.31992 | 34836 ft | 461 kts | 213° |
| 2026-05-06 16:45 | 16.51514 | 54.28397 | 34841 ft | 461 kts | 213° |
| 2026-05-06 16:45 | 16.46137 | 54.24820 | 34842 ft | 462 kts | 213° |
| 2026-05-06 16:46 | 16.40725 | 54.21222 | 34834 ft | 462 kts | 213° |
| 2026-05-06 16:46 | 16.35294 | 54.17630 | 34839 ft | 462 kts | 213° |
| 2026-05-06 16:47 | 16.29867 | 54.14036 | 34847 ft | 462 kts | 213° |
| 2026-05-06 16:47 | 16.24439 | 54.10441 | 34843 ft | 462 kts | 213° |
| 2026-05-06 16:48 | 16.19010 | 54.06853 | 34844 ft | 463 kts | 212° |
| 2026-05-06 16:48 | 16.13568 | 54.03250 | 34855 ft | 463 kts | 213° |
| 2026-05-06 16:49 | 16.08131 | 53.99651 | 34850 ft | 463 kts | 212° |
| 2026-05-06 16:49 | 16.02696 | 53.96060 | 34864 ft | 463 kts | 212° |
| 2026-05-06 16:50 | 15.97254 | 53.92466 | 34860 ft | 463 kts | 212° |
| 2026-05-06 16:50 | 15.91813 | 53.88879 | 34857 ft | 463 kts | 212° |
| 2026-05-06 16:51 | 15.86371 | 53.85288 | 34865 ft | 463 kts | 213° |
| 2026-05-06 16:51 | 15.80978 | 53.81695 | 34859 ft | 464 kts | 213° |
| 2026-05-06 16:52 | 15.75552 | 53.78055 | 34867 ft | 464 kts | 213° |
| 2026-05-06 16:52 | 15.70123 | 53.74412 | 34856 ft | 464 kts | 213° |
| 2026-05-06 16:53 | 15.64771 | 53.70834 | 34854 ft | 454 kts | 213° |
| 2026-05-06 16:53 | 15.59459 | 53.67297 | 34854 ft | 453 kts | 213° |
| 2026-05-06 16:54 | 15.54167 | 53.63772 | 34853 ft | 452 kts | 213° |
| 2026-05-06 16:54 | 15.48875 | 53.60247 | 34856 ft | 452 kts | 213° |
| 2026-05-06 16:55 | 15.43576 | 53.56720 | 34856 ft | 452 kts | 213° |
| 2026-05-06 16:55 | 15.38283 | 53.53267 | 34854 ft | 452 kts | 212° |
| 2026-05-06 16:56 | 15.32919 | 53.49853 | 34857 ft | 452 kts | 212° |
| 2026-05-06 16:56 | 15.27557 | 53.46438 | 34863 ft | 452 kts | 212° |
| 2026-05-06 16:57 | 15.22198 | 53.43010 | 34861 ft | 452 kts | 212° |
| 2026-05-06 16:57 | 15.16845 | 53.39587 | 34863 ft | 452 kts | 212° |
| 2026-05-06 16:58 | 15.11493 | 53.36158 | 34862 ft | 452 kts | 212° |
| 2026-05-06 16:58 | 15.06141 | 53.32730 | 34861 ft | 452 kts | 212° |
| 2026-05-06 16:59 | 15.00779 | 53.29305 | 34858 ft | 453 kts | 212° |
| 2026-05-06 16:59 | 14.95415 | 53.25889 | 34856 ft | 453 kts | 212° |
| 2026-05-06 17:00 | 14.90049 | 53.22465 | 34860 ft | 453 kts | 212° |
| 2026-05-06 17:00 | 14.84693 | 53.19042 | 34861 ft | 453 kts | 212° |
| 2026-05-06 17:01 | 14.79333 | 53.15619 | 34857 ft | 453 kts | 212° |
| 2026-05-06 17:01 | 14.73970 | 53.12201 | 34863 ft | 453 kts | 212° |
| 2026-05-06 17:02 | 14.68601 | 53.08785 | 34869 ft | 453 kts | 212° |
| 2026-05-06 17:02 | 14.63714 | 53.04785 | 34865 ft | 452 kts | 225° |
| 2026-05-06 17:03 | 14.59316 | 53.00134 | 34862 ft | 453 kts | 225° |
| 2026-05-06 17:03 | 14.54908 | 52.95497 | 34861 ft | 453 kts | 225° |
| 2026-05-06 17:04 | 14.50495 | 52.90861 | 34860 ft | 453 kts | 225° |
| 2026-05-06 17:04 | 14.46079 | 52.86224 | 34856 ft | 453 kts | 225° |
| 2026-05-06 17:05 | 14.41667 | 52.81590 | 34856 ft | 453 kts | 225° |
| 2026-05-06 17:05 | 14.37254 | 52.76958 | 34854 ft | 453 kts | 225° |
| 2026-05-06 17:06 | 14.32834 | 52.72328 | 34855 ft | 453 kts | 225° |
| 2026-05-06 17:06 | 14.28416 | 52.67694 | 34855 ft | 453 kts | 225° |
| 2026-05-06 17:07 | 14.23998 | 52.63070 | 34852 ft | 453 kts | 225° |
| 2026-05-06 17:07 | 14.19580 | 52.58449 | 34849 ft | 452 kts | 225° |
| 2026-05-06 17:08 | 14.15171 | 52.53831 | 34846 ft | 452 kts | 225° |
| 2026-05-06 17:08 | 14.10745 | 52.49201 | 34843 ft | 452 kts | 225° |
| 2026-05-06 17:09 | 14.06324 | 52.44587 | 34844 ft | 453 kts | 225° |
| 2026-05-06 17:09 | 14.01899 | 52.39970 | 34846 ft | 453 kts | 225° |
| 2026-05-06 17:10 | 13.97480 | 52.35349 | 34846 ft | 453 kts | 225° |
| 2026-05-06 17:10 | 13.93060 | 52.30733 | 34843 ft | 453 kts | 225° |
| 2026-05-06 17:11 | 13.88629 | 52.26120 | 34834 ft | 453 kts | 225° |
| 2026-05-06 17:11 | 13.84223 | 52.21540 | 34840 ft | 453 kts | 225° |
| 2026-05-06 17:12 | 13.79759 | 52.16896 | 34841 ft | 453 kts | 225° |
| 2026-05-06 17:12 | 13.75352 | 52.12306 | 34843 ft | 453 kts | 225° |
| 2026-05-06 17:13 | 13.70916 | 52.07693 | 34842 ft | 454 kts | 225° |
| 2026-05-06 17:13 | 13.66474 | 52.03080 | 34833 ft | 454 kts | 225° |
| 2026-05-06 17:14 | 13.62036 | 51.98465 | 34842 ft | 454 kts | 225° |
| 2026-05-06 17:14 | 13.57593 | 51.93847 | 34845 ft | 454 kts | 225° |
| 2026-05-06 17:15 | 13.53149 | 51.89223 | 34844 ft | 454 kts | 225° |
| 2026-05-06 17:15 | 13.48744 | 51.84578 | 34849 ft | 454 kts | 225° |
| 2026-05-06 17:16 | 13.44349 | 51.79922 | 34839 ft | 454 kts | 225° |
| 2026-05-06 17:16 | 13.39971 | 51.75310 | 34838 ft | 453 kts | 225° |
| 2026-05-06 17:17 | 13.35561 | 51.70679 | 34832 ft | 453 kts | 225° |
| 2026-05-06 17:17 | 13.31154 | 51.66040 | 34830 ft | 453 kts | 225° |
| 2026-05-06 17:18 | 13.26747 | 51.61414 | 34834 ft | 453 kts | 225° |
| 2026-05-06 17:18 | 13.22335 | 51.56784 | 34836 ft | 453 kts | 225° |
| 2026-05-06 17:19 | 13.18670 | 51.52933 | 34833 ft | 454 kts | 225° |
| 2026-05-06 17:19 | 13.14255 | 51.48298 | 34834 ft | 454 kts | 225° |
| 2026-05-06 17:20 | 13.09842 | 51.43670 | 34839 ft | 454 kts | 225° |
| 2026-05-06 17:20 | 13.05427 | 51.39039 | 34841 ft | 454 kts | 225° |
| 2026-05-06 17:21 | 13.01014 | 51.34413 | 34848 ft | 454 kts | 225° |
| 2026-05-06 17:21 | 12.96601 | 51.29785 | 34844 ft | 454 kts | 225° |
| 2026-05-06 17:22 | 12.92186 | 51.25161 | 34840 ft | 454 kts | 225° |
| 2026-05-06 17:22 | 12.87764 | 51.20547 | 34841 ft | 454 kts | 225° |
| 2026-05-06 17:23 | 12.83339 | 51.15927 | 34846 ft | 454 kts | 225° |
| 2026-05-06 17:23 | 12.78913 | 51.11303 | 34848 ft | 454 kts | 225° |
| 2026-05-06 17:24 | 12.74494 | 51.06692 | 34844 ft | 454 kts | 225° |
| 2026-05-06 17:24 | 12.70070 | 51.02075 | 34837 ft | 454 kts | 225° |
| 2026-05-06 17:25 | 12.65651 | 50.97455 | 34841 ft | 454 kts | 225° |
| 2026-05-06 17:25 | 12.61233 | 50.92841 | 34832 ft | 454 kts | 225° |
| 2026-05-06 17:26 | 12.56834 | 50.88266 | 34840 ft | 454 kts | 225° |
| 2026-05-06 17:26 | 12.52401 | 50.83667 | 34847 ft | 454 kts | 225° |
| 2026-05-06 17:27 | 12.47978 | 50.79063 | 34832 ft | 454 kts | 225° |
| 2026-05-06 17:27 | 12.43529 | 50.74426 | 34827 ft | 454 kts | 225° |
| 2026-05-06 17:28 | 12.39109 | 50.69816 | 34827 ft | 454 kts | 225° |
| 2026-05-06 17:28 | 12.34705 | 50.65238 | 34830 ft | 454 kts | 225° |
| 2026-05-06 17:29 | 12.30266 | 50.60628 | 34829 ft | 455 kts | 225° |
| 2026-05-06 17:29 | 12.25816 | 50.56021 | 34827 ft | 455 kts | 225° |
| 2026-05-06 17:30 | 12.21361 | 50.51409 | 34829 ft | 456 kts | 225° |
| 2026-05-06 17:30 | 12.16914 | 50.46784 | 34827 ft | 456 kts | 225° |
| 2026-05-06 17:31 | 12.12576 | 50.42038 | 34832 ft | 457 kts | 228° |
| 2026-05-06 17:31 | 12.08372 | 50.37166 | 34831 ft | 457 kts | 228° |
| 2026-05-06 17:32 | 12.04157 | 50.32288 | 34834 ft | 457 kts | 228° |
| 2026-05-06 17:32 | 11.99910 | 50.27454 | 34836 ft | 457 kts | 227° |
| 2026-05-06 17:33 | 11.95671 | 50.22665 | 34836 ft | 457 kts | 227° |
| 2026-05-06 17:33 | 11.91408 | 50.17842 | 34843 ft | 457 kts | 227° |
| 2026-05-06 17:34 | 11.87145 | 50.13020 | 34845 ft | 457 kts | 227° |
| 2026-05-06 17:34 | 11.82889 | 50.08196 | 34843 ft | 457 kts | 228° |
| 2026-05-06 17:35 | 11.78632 | 50.03367 | 34841 ft | 457 kts | 228° |
| 2026-05-06 17:35 | 11.74364 | 49.98544 | 34844 ft | 457 kts | 227° |
| 2026-05-06 17:36 | 11.67968 | 49.91313 | 34846 ft | 458 kts | 227° |
| 2026-05-06 17:36 | 11.63700 | 49.86497 | 34854 ft | 458 kts | 227° |
| 2026-05-06 17:37 | 11.59430 | 49.81674 | 34860 ft | 458 kts | 228° |
| 2026-05-06 17:37 | 11.55171 | 49.76853 | 34863 ft | 458 kts | 228° |
| 2026-05-06 17:38 | 11.50903 | 49.72033 | 34874 ft | 458 kts | 227° |
| 2026-05-06 17:38 | 11.46633 | 49.67219 | 34875 ft | 458 kts | 227° |
| 2026-05-06 17:39 | 11.42357 | 49.62409 | 34879 ft | 458 kts | 227° |
| 2026-05-06 17:39 | 11.38070 | 49.57605 | 34879 ft | 458 kts | 226° |
| 2026-05-06 17:40 | 11.33611 | 49.52966 | 34889 ft | 458 kts | 224° |
| 2026-05-06 17:40 | 11.29097 | 49.48446 | 34894 ft | 458 kts | 224° |
| 2026-05-06 17:41 | 11.24548 | 49.43852 | 34883 ft | 458 kts | 225° |
| 2026-05-06 17:41 | 11.20090 | 49.39284 | 34888 ft | 458 kts | 225° |
| 2026-05-06 17:42 | 11.15613 | 49.34677 | 34881 ft | 457 kts | 225° |
| 2026-05-06 17:42 | 11.11127 | 49.30081 | 34885 ft | 457 kts | 225° |
| 2026-05-06 17:43 | 11.06638 | 49.25495 | 34888 ft | 457 kts | 225° |
| 2026-05-06 17:43 | 11.02149 | 49.20913 | 34880 ft | 457 kts | 225° |
| 2026-05-06 17:44 | 10.97654 | 49.16327 | 34886 ft | 457 kts | 225° |
| 2026-05-06 17:44 | 10.93169 | 49.11746 | 34893 ft | 457 kts | 225° |
| 2026-05-06 17:45 | 10.88682 | 49.07163 | 34899 ft | 457 kts | 225° |
| 2026-05-06 17:45 | 10.84199 | 49.02589 | 34897 ft | 457 kts | 225° |
| 2026-05-06 17:46 | 10.79715 | 48.98015 | 34899 ft | 457 kts | 225° |
| 2026-05-06 17:46 | 10.75223 | 48.93442 | 35213 ft | 457 kts | 225° |
| 2026-05-06 17:47 | 10.72978 | 48.91160 | 35600 ft | 455 kts | 225° |
| 2026-05-06 17:47 | 10.70746 | 48.88889 | 35960 ft | 453 kts | 225° |
| 2026-05-06 17:47 | 10.68519 | 48.86618 | 36314 ft | 452 kts | 225° |
| 2026-05-06 17:47 | 10.66304 | 48.84359 | 36656 ft | 451 kts | 225° |
| 2026-05-06 17:48 | 10.64093 | 48.82105 | 36994 ft | 450 kts | 225° |
| 2026-05-06 17:48 | 10.61888 | 48.79859 | 37317 ft | 449 kts | 225° |
| 2026-05-06 17:48 | 10.59684 | 48.77616 | 37639 ft | 447 kts | 225° |
| 2026-05-06 17:48 | 10.57484 | 48.75381 | 37878 ft | 448 kts | 225° |
| 2026-05-06 17:49 | 10.53084 | 48.70917 | 37905 ft | 446 kts | 225° |
| 2026-05-06 17:49 | 10.48700 | 48.66460 | 37912 ft | 446 kts | 225° |
| 2026-05-06 17:50 | 10.44320 | 48.62008 | 37911 ft | 445 kts | 225° |
| 2026-05-06 17:50 | 10.39939 | 48.57560 | 37909 ft | 445 kts | 225° |
| 2026-05-06 17:51 | 10.35562 | 48.53117 | 37914 ft | 445 kts | 225° |
| 2026-05-06 17:51 | 10.31178 | 48.48675 | 37920 ft | 445 kts | 225° |
| 2026-05-06 17:52 | 10.26800 | 48.44230 | 37922 ft | 445 kts | 225° |
| 2026-05-06 17:52 | 10.22419 | 48.39784 | 37926 ft | 445 kts | 225° |
| 2026-05-06 17:53 | 10.18032 | 48.35336 | 37923 ft | 446 kts | 225° |
| 2026-05-06 17:53 | 10.13643 | 48.30896 | 37924 ft | 446 kts | 225° |
| 2026-05-06 17:54 | 10.09247 | 48.26451 | 37920 ft | 446 kts | 225° |
| 2026-05-06 17:54 | 10.04857 | 48.22002 | 37913 ft | 446 kts | 225° |
| 2026-05-06 17:55 | 10.00465 | 48.17554 | 37914 ft | 446 kts | 225° |
| 2026-05-06 17:55 | 9.96067 | 48.13102 | 37911 ft | 447 kts | 225° |
| 2026-05-06 17:56 | 9.91666 | 48.08654 | 37909 ft | 447 kts | 225° |
| 2026-05-06 17:56 | 9.87262 | 48.04196 | 37911 ft | 447 kts | 225° |
| 2026-05-06 17:57 | 9.82852 | 47.99739 | 37906 ft | 448 kts | 224° |
| 2026-05-06 17:57 | 9.78433 | 47.95290 | 37907 ft | 448 kts | 224° |
| 2026-05-06 17:58 | 9.74011 | 47.90826 | 37904 ft | 448 kts | 224° |
| 2026-05-06 17:58 | 9.69620 | 47.86398 | 37905 ft | 449 kts | 224° |
| 2026-05-06 17:59 | 9.65189 | 47.81930 | 37900 ft | 449 kts | 224° |
| 2026-05-06 17:59 | 9.60767 | 47.77461 | 37896 ft | 449 kts | 224° |
| 2026-05-06 18:00 | 9.56333 | 47.73002 | 37892 ft | 449 kts | 224° |
| 2026-05-06 18:00 | 9.51899 | 47.68534 | 37887 ft | 449 kts | 224° |
| 2026-05-06 18:01 | 9.47468 | 47.64077 | 37884 ft | 449 kts | 224° |
| 2026-05-06 18:01 | 9.43035 | 47.59614 | 37883 ft | 449 kts | 224° |
| 2026-05-06 18:02 | 9.38602 | 47.55146 | 37885 ft | 449 kts | 224° |
| 2026-05-06 18:02 | 9.34915 | 47.51440 | 37882 ft | 449 kts | 224° |
| 2026-05-06 18:03 | 9.30479 | 47.46979 | 37874 ft | 450 kts | 224° |
| 2026-05-06 18:03 | 9.25318 | 47.41789 | 37873 ft | 450 kts | 224° |
| 2026-05-06 18:04 | 9.21600 | 47.38052 | 37868 ft | 450 kts | 224° |
| 2026-05-06 18:04 | 9.17166 | 47.33577 | 37865 ft | 450 kts | 225° |
| 2026-05-06 18:05 | 9.12814 | 47.29016 | 37866 ft | 450 kts | 226° |
| 2026-05-06 18:05 | 9.08500 | 47.24409 | 37862 ft | 451 kts | 226° |
| 2026-05-06 18:06 | 9.04170 | 47.19814 | 37867 ft | 451 kts | 226° |
| 2026-05-06 18:06 | 8.99826 | 47.15251 | 37863 ft | 451 kts | 225° |
| 2026-05-06 18:07 | 8.95467 | 47.10687 | 37869 ft | 451 kts | 225° |
| 2026-05-06 18:07 | 8.91118 | 47.06122 | 37871 ft | 451 kts | 226° |
| 2026-05-06 18:08 | 8.86804 | 47.01584 | 37873 ft | 451 kts | 226° |
| 2026-05-06 18:08 | 8.82460 | 46.97014 | 37882 ft | 451 kts | 225° |
| 2026-05-06 18:09 | 8.78084 | 46.92419 | 37882 ft | 451 kts | 225° |
| 2026-05-06 18:09 | 8.73730 | 46.87855 | 37886 ft | 451 kts | 225° |
| 2026-05-06 18:10 | 8.69374 | 46.83294 | 37891 ft | 451 kts | 225° |
| 2026-05-06 18:10 | 8.65020 | 46.78716 | 37894 ft | 451 kts | 225° |
| 2026-05-06 18:11 | 8.60664 | 46.74142 | 37898 ft | 452 kts | 225° |
| 2026-05-06 18:11 | 8.56301 | 46.69570 | 37900 ft | 452 kts | 225° |
| 2026-05-06 18:12 | 8.51969 | 46.65034 | 37905 ft | 452 kts | 225° |
| 2026-05-06 18:12 | 8.47602 | 46.60462 | 37902 ft | 452 kts | 225° |
| 2026-05-06 18:13 | 8.43233 | 46.55890 | 37903 ft | 452 kts | 225° |
| 2026-05-06 18:13 | 8.38865 | 46.51323 | 37900 ft | 452 kts | 225° |
| 2026-05-06 18:14 | 8.34498 | 46.46747 | 37902 ft | 452 kts | 225° |
| 2026-05-06 18:14 | 8.30128 | 46.42168 | 37905 ft | 452 kts | 225° |
| 2026-05-06 18:15 | 8.25752 | 46.37596 | 37907 ft | 452 kts | 225° |
| 2026-05-06 18:15 | 8.21379 | 46.33030 | 37906 ft | 452 kts | 225° |
| 2026-05-06 18:16 | 8.17039 | 46.28433 | 37907 ft | 452 kts | 226° |
| 2026-05-06 18:16 | 8.12724 | 46.23814 | 37909 ft | 452 kts | 226° |
| 2026-05-06 18:17 | 8.08407 | 46.19196 | 37908 ft | 452 kts | 226° |
| 2026-05-06 18:17 | 8.04084 | 46.14588 | 37909 ft | 452 kts | 226° |
| 2026-05-06 18:18 | 7.99749 | 46.09980 | 37910 ft | 452 kts | 226° |
| 2026-05-06 18:18 | 7.95416 | 46.05374 | 37910 ft | 453 kts | 226° |
| 2026-05-06 18:19 | 7.91083 | 46.00763 | 37909 ft | 453 kts | 226° |
| 2026-05-06 18:19 | 7.86745 | 45.96143 | 37914 ft | 453 kts | 226° |
| 2026-05-06 18:20 | 7.82402 | 45.91526 | 37912 ft | 454 kts | 226° |
| 2026-05-06 18:20 | 7.78080 | 45.86931 | 37917 ft | 454 kts | 226° |
| 2026-05-06 18:21 | 7.73735 | 45.82310 | 37917 ft | 454 kts | 226° |
| 2026-05-06 18:21 | 7.69386 | 45.77686 | 37920 ft | 454 kts | 226° |
| 2026-05-06 18:22 | 7.65034 | 45.73077 | 37923 ft | 454 kts | 226° |
| 2026-05-06 18:22 | 7.60684 | 45.68469 | 37924 ft | 454 kts | 226° |
| 2026-05-06 18:23 | 7.56333 | 45.63869 | 37928 ft | 453 kts | 225° |
| 2026-05-06 18:23 | 7.51979 | 45.59268 | 37930 ft | 453 kts | 226° |
| 2026-05-06 18:24 | 7.47640 | 45.54666 | 37934 ft | 453 kts | 225° |
| 2026-05-06 18:24 | 7.43297 | 45.50079 | 37931 ft | 452 kts | 225° |
| 2026-05-06 18:25 | 7.38954 | 45.45492 | 37931 ft | 452 kts | 225° |
| 2026-05-06 18:25 | 7.34605 | 45.40893 | 37934 ft | 453 kts | 226° |
| 2026-05-06 18:26 | 7.30258 | 45.36301 | 37932 ft | 453 kts | 225° |
| 2026-05-06 18:26 | 7.25902 | 45.31716 | 37935 ft | 453 kts | 225° |
| 2026-05-06 18:27 | 7.21547 | 45.27125 | 37938 ft | 453 kts | 225° |
| 2026-05-06 18:27 | 7.17200 | 45.22524 | 37936 ft | 453 kts | 225° |
| 2026-05-06 18:28 | 7.12872 | 45.17959 | 37938 ft | 454 kts | 225° |
| 2026-05-06 18:28 | 7.08514 | 45.13363 | 37943 ft | 454 kts | 225° |
| 2026-05-06 18:29 | 7.04152 | 45.08768 | 37937 ft | 454 kts | 225° |
| 2026-05-06 18:29 | 6.99794 | 45.04167 | 37939 ft | 454 kts | 225° |
| 2026-05-06 18:30 | 6.95423 | 44.99579 | 37939 ft | 454 kts | 225° |
| 2026-05-06 18:30 | 6.91062 | 44.94978 | 37942 ft | 454 kts | 225° |
| 2026-05-06 18:31 | 6.86704 | 44.90380 | 37938 ft | 454 kts | 225° |
| 2026-05-06 18:31 | 6.82327 | 44.85784 | 37932 ft | 454 kts | 225° |
| 2026-05-06 18:32 | 6.77957 | 44.81189 | 37933 ft | 455 kts | 225° |
| 2026-05-06 18:32 | 6.73588 | 44.76586 | 37925 ft | 455 kts | 225° |
| 2026-05-06 18:33 | 6.69205 | 44.71988 | 37922 ft | 455 kts | 225° |
| 2026-05-06 18:33 | 6.64819 | 44.67398 | 37913 ft | 455 kts | 225° |
| 2026-05-06 18:34 | 6.60437 | 44.62805 | 37915 ft | 455 kts | 225° |
| 2026-05-06 18:34 | 6.56050 | 44.58203 | 37912 ft | 456 kts | 225° |
| 2026-05-06 18:35 | 6.51658 | 44.53605 | 37906 ft | 456 kts | 225° |
| 2026-05-06 18:35 | 6.47268 | 44.49006 | 37906 ft | 456 kts | 225° |
| 2026-05-06 18:36 | 6.42868 | 44.44411 | 37906 ft | 456 kts | 225° |
| 2026-05-06 18:36 | 6.38470 | 44.39817 | 37907 ft | 456 kts | 225° |
| 2026-05-06 18:37 | 6.34818 | 44.35990 | 37908 ft | 456 kts | 225° |
| 2026-05-06 18:37 | 6.29709 | 44.30639 | 37908 ft | 456 kts | 225° |
| 2026-05-06 18:38 | 6.25304 | 44.26043 | 37910 ft | 456 kts | 225° |
| 2026-05-06 18:38 | 6.20901 | 44.21446 | 37910 ft | 456 kts | 225° |
| 2026-05-06 18:39 | 6.16501 | 44.16849 | 37910 ft | 456 kts | 226° |
| 2026-05-06 18:40 | 6.09902 | 44.09960 | 37909 ft | 456 kts | 225° |
| 2026-05-06 18:40 | 6.05494 | 44.05358 | 37907 ft | 456 kts | 226° |
| 2026-05-06 18:41 | 6.01100 | 44.00759 | 37902 ft | 456 kts | 226° |
| 2026-05-06 18:41 | 5.96696 | 43.96159 | 37900 ft | 456 kts | 225° |
| 2026-05-06 18:42 | 5.92322 | 43.91601 | 37903 ft | 456 kts | 225° |
| 2026-05-06 18:42 | 5.87916 | 43.87009 | 37901 ft | 456 kts | 226° |
| 2026-05-06 18:43 | 5.83514 | 43.82417 | 37899 ft | 456 kts | 226° |
| 2026-05-06 18:43 | 5.79111 | 43.77826 | 37902 ft | 456 kts | 226° |
| 2026-05-06 18:44 | 5.74710 | 43.73235 | 37900 ft | 456 kts | 226° |
| 2026-05-06 18:44 | 5.70308 | 43.68647 | 37904 ft | 456 kts | 226° |
| 2026-05-06 18:45 | 5.65902 | 43.64062 | 37902 ft | 456 kts | 226° |
| 2026-05-06 18:45 | 5.61489 | 43.59486 | 37908 ft | 456 kts | 226° |
| 2026-05-06 18:46 | 5.57073 | 43.54910 | 37912 ft | 456 kts | 225° |
| 2026-05-06 18:46 | 5.52659 | 43.50335 | 37913 ft | 456 kts | 225° |
| 2026-05-06 18:47 | 5.48245 | 43.45758 | 37919 ft | 456 kts | 225° |
| 2026-05-06 18:47 | 5.44581 | 43.41951 | 37923 ft | 456 kts | 226° |
| 2026-05-06 18:48 | 5.40165 | 43.37376 | 37926 ft | 456 kts | 225° |
| 2026-05-06 18:48 | 5.35744 | 43.32804 | 37926 ft | 456 kts | 226° |
| 2026-05-06 18:49 | 5.31327 | 43.28231 | 37926 ft | 456 kts | 226° |
| 2026-05-06 18:49 | 5.26913 | 43.23651 | 37925 ft | 456 kts | 225° |
| 2026-05-06 18:50 | 5.22491 | 43.19071 | 37928 ft | 456 kts | 226° |
| 2026-05-06 18:50 | 5.18099 | 43.14518 | 37927 ft | 457 kts | 226° |
| 2026-05-06 18:51 | 5.13682 | 43.09940 | 37927 ft | 457 kts | 226° |
| 2026-05-06 18:51 | 5.09260 | 43.05358 | 37925 ft | 457 kts | 225° |
| 2026-05-06 18:52 | 5.04831 | 43.00782 | 37924 ft | 457 kts | 225° |
| 2026-05-06 18:52 | 5.00409 | 42.96205 | 37925 ft | 457 kts | 225° |
| 2026-05-06 18:53 | 4.95984 | 42.91621 | 37925 ft | 457 kts | 225° |
| 2026-05-06 18:53 | 4.91560 | 42.87046 | 37924 ft | 457 kts | 225° |
| 2026-05-06 18:54 | 4.87128 | 42.82478 | 37923 ft | 457 kts | 225° |
| 2026-05-06 18:54 | 4.82696 | 42.77910 | 37926 ft | 457 kts | 225° |
| 2026-05-06 18:55 | 4.78302 | 42.73366 | 37922 ft | 457 kts | 225° |
| 2026-05-06 18:55 | 4.73882 | 42.68791 | 37923 ft | 457 kts | 226° |
| 2026-05-06 18:56 | 4.69457 | 42.64218 | 37922 ft | 457 kts | 225° |
| 2026-05-06 18:56 | 4.65033 | 42.59651 | 37918 ft | 456 kts | 226° |
| 2026-05-06 18:57 | 4.60611 | 42.55087 | 37916 ft | 456 kts | 226° |
| 2026-05-06 18:57 | 4.56184 | 42.50516 | 37916 ft | 456 kts | 226° |
| 2026-05-06 18:58 | 4.51758 | 42.45951 | 37915 ft | 456 kts | 226° |
| 2026-05-06 18:58 | 4.47331 | 42.41386 | 37915 ft | 456 kts | 226° |
| 2026-05-06 18:59 | 4.42911 | 42.36821 | 37911 ft | 456 kts | 226° |
| 2026-05-06 18:59 | 4.38483 | 42.32258 | 37907 ft | 456 kts | 226° |
| 2026-05-06 19:00 | 4.34090 | 42.27729 | 37914 ft | 456 kts | 226° |
| 2026-05-06 19:00 | 4.29666 | 42.23164 | 37913 ft | 457 kts | 226° |
| 2026-05-06 19:01 | 4.25242 | 42.18593 | 37905 ft | 457 kts | 226° |
| 2026-05-06 19:01 | 4.20814 | 42.14027 | 37906 ft | 457 kts | 226° |
| 2026-05-06 19:02 | 4.16380 | 42.09452 | 37910 ft | 457 kts | 225° |
| 2026-05-06 19:02 | 4.11941 | 42.04883 | 37909 ft | 458 kts | 225° |
| 2026-05-06 19:03 | 4.07498 | 42.00302 | 37910 ft | 458 kts | 226° |
| 2026-05-06 19:03 | 4.03052 | 41.95722 | 37914 ft | 458 kts | 225° |
| 2026-05-06 19:04 | 3.98602 | 41.91145 | 37916 ft | 458 kts | 225° |
| 2026-05-06 19:04 | 3.94173 | 41.86609 | 37919 ft | 458 kts | 222° |
| 2026-05-06 19:05 | 3.89277 | 41.82530 | 37922 ft | 458 kts | 219° |
| 2026-05-06 19:05 | 3.84337 | 41.78493 | 37927 ft | 458 kts | 219° |
| 2026-05-06 19:06 | 3.79399 | 41.74463 | 37928 ft | 458 kts | 219° |
| 2026-05-06 19:06 | 3.74462 | 41.70427 | 37929 ft | 458 kts | 219° |
| 2026-05-06 19:07 | 3.69531 | 41.66380 | 37936 ft | 458 kts | 219° |
| 2026-05-06 19:07 | 3.64600 | 41.62337 | 37938 ft | 458 kts | 219° |
| 2026-05-06 19:08 | 3.59671 | 41.58298 | 37944 ft | 458 kts | 219° |
| 2026-05-06 19:08 | 3.54732 | 41.54268 | 37946 ft | 458 kts | 219° |
| 2026-05-06 19:09 | 3.49795 | 41.50230 | 37953 ft | 458 kts | 219° |
| 2026-05-06 19:09 | 3.44862 | 41.46199 | 37956 ft | 458 kts | 219° |
| 2026-05-06 19:10 | 3.39929 | 41.42168 | 37957 ft | 458 kts | 219° |
| 2026-05-06 19:10 | 3.34997 | 41.38138 | 37961 ft | 458 kts | 219° |
| 2026-05-06 19:11 | 3.30066 | 41.34104 | 37960 ft | 458 kts | 219° |
| 2026-05-06 19:11 | 3.25138 | 41.30076 | 37958 ft | 457 kts | 219° |
| 2026-05-06 19:12 | 3.20204 | 41.26046 | 37962 ft | 457 kts | 219° |
| 2026-05-06 19:12 | 3.15276 | 41.22020 | 37959 ft | 457 kts | 219° |
| 2026-05-06 19:13 | 3.10345 | 41.17993 | 37957 ft | 457 kts | 219° |
| 2026-05-06 19:13 | 3.05413 | 41.13970 | 37961 ft | 457 kts | 219° |
| 2026-05-06 19:14 | 3.00518 | 41.09977 | 37962 ft | 457 kts | 219° |
| 2026-05-06 19:14 | 2.95590 | 41.05951 | 37960 ft | 457 kts | 219° |
| 2026-05-06 19:15 | 2.90669 | 41.01926 | 37961 ft | 457 kts | 219° |
| 2026-05-06 19:15 | 2.85750 | 40.97900 | 37960 ft | 457 kts | 219° |
| 2026-05-06 19:16 | 2.80827 | 40.93874 | 37957 ft | 457 kts | 219° |
| 2026-05-06 19:16 | 2.75903 | 40.89851 | 37959 ft | 457 kts | 219° |
| 2026-05-06 19:17 | 2.70973 | 40.85840 | 37963 ft | 457 kts | 219° |
| 2026-05-06 19:17 | 2.66037 | 40.81827 | 37963 ft | 457 kts | 219° |
| 2026-05-06 19:18 | 2.61114 | 40.77808 | 37964 ft | 457 kts | 219° |
| 2026-05-06 19:18 | 2.56196 | 40.73787 | 37963 ft | 457 kts | 219° |
| 2026-05-06 19:19 | 2.51277 | 40.69771 | 37958 ft | 457 kts | 219° |
| 2026-05-06 19:19 | 2.46346 | 40.65755 | 37959 ft | 457 kts | 219° |
| 2026-05-06 19:20 | 2.41409 | 40.61731 | 37959 ft | 457 kts | 219° |
| 2026-05-06 19:20 | 2.36472 | 40.57728 | 37963 ft | 457 kts | 219° |
| 2026-05-06 19:21 | 2.31511 | 40.53753 | 37967 ft | 457 kts | 219° |
| 2026-05-06 19:21 | 2.26535 | 40.49780 | 37965 ft | 457 kts | 219° |
| 2026-05-06 19:22 | 2.21566 | 40.45811 | 37962 ft | 457 kts | 219° |
| 2026-05-06 19:22 | 2.16593 | 40.41830 | 37961 ft | 458 kts | 219° |
| 2026-05-06 19:23 | 2.11626 | 40.37845 | 37961 ft | 458 kts | 219° |
| 2026-05-06 19:23 | 2.06654 | 40.33862 | 37961 ft | 458 kts | 219° |
| 2026-05-06 19:24 | 2.01713 | 40.29903 | 37958 ft | 458 kts | 219° |
| 2026-05-06 19:24 | 1.96741 | 40.25918 | 37937 ft | 458 kts | 219° |
| 2026-05-06 19:25 | 1.91764 | 40.21934 | 37914 ft | 458 kts | 219° |
| 2026-05-06 19:25 | 1.86787 | 40.17949 | 37899 ft | 458 kts | 220° |
| 2026-05-06 19:26 | 1.81805 | 40.13960 | 37875 ft | 458 kts | 220° |
| 2026-05-06 19:26 | 1.76824 | 40.09978 | 37875 ft | 458 kts | 219° |
| 2026-05-06 19:27 | 1.71782 | 40.06073 | 37871 ft | 458 kts | 217° |
| 2026-05-06 19:27 | 1.66542 | 40.02438 | 37881 ft | 458 kts | 214° |
| 2026-05-06 19:28 | 1.61258 | 39.98875 | 37901 ft | 458 kts | 215° |
| 2026-05-06 19:28 | 1.56013 | 39.95262 | 37915 ft | 458 kts | 215° |
| 2026-05-06 19:29 | 1.50800 | 39.91604 | 37935 ft | 458 kts | 216° |
| 2026-05-06 19:29 | 1.45590 | 39.87945 | 37953 ft | 457 kts | 215° |
| 2026-05-06 19:30 | 1.40366 | 39.84305 | 37952 ft | 457 kts | 215° |
| 2026-05-06 19:30 | 1.35144 | 39.80671 | 37954 ft | 457 kts | 215° |
| 2026-05-06 19:31 | 1.29926 | 39.77027 | 37952 ft | 457 kts | 215° |
| 2026-05-06 19:31 | 1.22136 | 39.71598 | 37959 ft | 457 kts | 215° |
| 2026-05-06 19:32 | 1.16921 | 39.67964 | 37958 ft | 457 kts | 215° |
| 2026-05-06 19:32 | 1.11716 | 39.64331 | 37952 ft | 456 kts | 215° |
| 2026-05-06 19:33 | 1.06512 | 39.60703 | 37957 ft | 456 kts | 215° |
| 2026-05-06 19:33 | 1.01309 | 39.57073 | 37960 ft | 455 kts | 215° |
| 2026-05-06 19:34 | 0.96993 | 39.54062 | 37960 ft | 455 kts | 215° |
| 2026-05-06 19:34 | 0.91798 | 39.50453 | 37956 ft | 454 kts | 215° |
| 2026-05-06 19:35 | 0.86607 | 39.46867 | 37958 ft | 454 kts | 215° |
| 2026-05-06 19:35 | 0.81408 | 39.43281 | 37956 ft | 453 kts | 215° |
| 2026-05-06 19:36 | 0.76227 | 39.39697 | 37960 ft | 453 kts | 215° |
| 2026-05-06 19:36 | 0.71057 | 39.36113 | 37956 ft | 452 kts | 215° |
| 2026-05-06 19:37 | 0.65890 | 39.32539 | 37960 ft | 452 kts | 216° |
| 2026-05-06 19:37 | 0.60725 | 39.28963 | 37956 ft | 451 kts | 216° |
| 2026-05-06 19:38 | 0.55564 | 39.25394 | 37957 ft | 451 kts | 216° |
| 2026-05-06 19:38 | 0.50414 | 39.21821 | 37959 ft | 450 kts | 216° |
| 2026-05-06 19:39 | 0.45267 | 39.18255 | 37960 ft | 450 kts | 216° |
| 2026-05-06 19:39 | 0.40113 | 39.14700 | 37963 ft | 450 kts | 216° |
| 2026-05-06 19:40 | 0.35005 | 39.11167 | 37966 ft | 449 kts | 216° |
| 2026-05-06 19:40 | 0.29870 | 39.07612 | 37965 ft | 449 kts | 216° |
| 2026-05-06 19:41 | 0.24740 | 39.04056 | 37965 ft | 449 kts | 216° |
| 2026-05-06 19:41 | 0.19613 | 39.00509 | 37964 ft | 448 kts | 216° |
| 2026-05-06 19:42 | 0.14478 | 38.96964 | 37964 ft | 448 kts | 216° |
| 2026-05-06 19:42 | 0.09343 | 38.93417 | 37959 ft | 449 kts | 216° |
| 2026-05-06 19:43 | 0.04204 | 38.89869 | 37963 ft | 449 kts | 216° |
| 2026-05-06 19:43 | -0.00929 | 38.86313 | 37962 ft | 449 kts | 216° |
| 2026-05-06 19:44 | -0.06057 | 38.82752 | 37963 ft | 449 kts | 216° |
| 2026-05-06 19:44 | -0.11207 | 38.79198 | 37971 ft | 449 kts | 216° |
| 2026-05-06 19:45 | -0.16347 | 38.75649 | 37983 ft | 449 kts | 216° |
| 2026-05-06 19:45 | -0.21488 | 38.72098 | 37987 ft | 449 kts | 216° |
| 2026-05-06 19:46 | -0.26627 | 38.68536 | 37998 ft | 449 kts | 216° |
| 2026-05-06 19:46 | -0.31760 | 38.64977 | 38004 ft | 449 kts | 216° |
| 2026-05-06 19:47 | -0.36902 | 38.61427 | 38013 ft | 449 kts | 216° |
| 2026-05-06 19:47 | -0.42039 | 38.57878 | 38022 ft | 449 kts | 216° |
| 2026-05-06 19:48 | -0.47175 | 38.54324 | 38026 ft | 449 kts | 216° |
| 2026-05-06 19:48 | -0.52265 | 38.50799 | 38037 ft | 448 kts | 216° |
| 2026-05-06 19:49 | -0.57393 | 38.47248 | 38046 ft | 448 kts | 216° |
| 2026-05-06 19:49 | -0.62519 | 38.43704 | 38051 ft | 448 kts | 216° |
| 2026-05-06 19:50 | -0.67643 | 38.40159 | 38058 ft | 448 kts | 216° |
| 2026-05-06 19:50 | -0.72762 | 38.36614 | 38064 ft | 448 kts | 216° |
| 2026-05-06 19:51 | -0.77889 | 38.33069 | 38068 ft | 448 kts | 216° |
| 2026-05-06 19:51 | -0.83007 | 38.29526 | 38071 ft | 448 kts | 216° |
| 2026-05-06 19:52 | -0.88136 | 38.25975 | 38080 ft | 448 kts | 216° |
| 2026-05-06 19:52 | -0.93266 | 38.22428 | 38080 ft | 448 kts | 216° |
| 2026-05-06 19:53 | -0.98367 | 38.18906 | 38089 ft | 448 kts | 216° |
| 2026-05-06 19:53 | -1.03492 | 38.15370 | 38097 ft | 448 kts | 216° |
| 2026-05-06 19:54 | -1.08632 | 38.11814 | 38100 ft | 449 kts | 216° |
| 2026-05-06 19:54 | -1.13768 | 38.08258 | 38100 ft | 449 kts | 216° |
| 2026-05-06 19:55 | -1.18903 | 38.04707 | 38104 ft | 449 kts | 215° |
| 2026-05-06 19:55 | -1.24045 | 38.01146 | 38105 ft | 450 kts | 215° |
| 2026-05-06 19:56 | -1.29199 | 37.97573 | 38109 ft | 450 kts | 216° |
| 2026-05-06 19:56 | -1.34353 | 37.94006 | 38111 ft | 451 kts | 215° |
| 2026-05-06 19:57 | -1.39511 | 37.90441 | 38115 ft | 451 kts | 215° |
| 2026-05-06 19:57 | -1.44675 | 37.86873 | 38116 ft | 451 kts | 215° |
| 2026-05-06 19:58 | -1.48562 | 37.84182 | 38117 ft | 452 kts | 215° |